sensor_id;sensor_type;location;lat;lon;timestamp;temperature;humidity
20777;DHT22;10548;47.504;8.248;2023-09-19T00:01:45;17.10;99.90
20777;DHT22;10548;47.504;8.248;2023-09-19T00:04:13;17.00;99.90
20777;DHT22;10548;47.504;8.248;2023-09-19T00:06:41;17.00;99.90
20777;DHT22;10548;47.504;8.248;2023-09-19T00:09:09;16.90;99.90
20777;DHT22;10548;47.504;8.248;2023-09-19T00:11:37;17.00;99.90
20777;DHT22;10548;47.504;8.248;2023-09-19T00:14:05;17.00;99.90
20777;DHT22;10548;47.504;8.248;2023-09-19T00:16:34;17.00;99.90
20777;DHT22;10548;47.504;8.248;2023-09-19T00:19:03;17.00;99.90
20777;DHT22;10548;47.504;8.248;2023-09-19T00:21:31;17.00;99.90
20777;DHT22;10548;47.504;8.248;2023-09-19T00:23:59;17.00;99.90
20777;DHT22;10548;47.504;8.248;2023-09-19T00:26:26;16.90;99.90
20777;DHT22;10548;47.504;8.248;2023-09-19T00:28:57;16.90;99.90
20777;DHT22;10548;47.504;8.248;2023-09-19T00:31:26;16.90;99.90
20777;DHT22;10548;47.504;8.248;2023-09-19T00:33:54;16.90;99.90
20777;DHT22;10548;47.504;8.248;2023-09-19T00:36:21;16.90;99.90
20777;DHT22;10548;47.504;8.248;2023-09-19T00:38:48;16.80;99.90
20777;DHT22;10548;47.504;8.248;2023-09-19T00:41:15;16.80;99.90
20777;DHT22;10548;47.504;8.248;2023-09-19T00:43:42;16.80;99.90
20777;DHT22;10548;47.504;8.248;2023-09-19T00:46:09;16.80;99.90
20777;DHT22;10548;47.504;8.248;2023-09-19T00:48:41;16.70;99.90
20777;DHT22;10548;47.504;8.248;2023-09-19T00:51:11;16.70;99.90
20777;DHT22;10548;47.504;8.248;2023-09-19T00:53:42;16.80;99.90
20777;DHT22;10548;47.504;8.248;2023-09-19T00:56:14;16.80;99.90
20777;DHT22;10548;47.504;8.248;2023-09-19T00:58:47;16.90;99.90
20777;DHT22;10548;47.504;8.248;2023-09-19T01:01:15;16.80;99.90
20777;DHT22;10548;47.504;8.248;2023-09-19T01:03:44;16.70;99.90
20777;DHT22;10548;47.504;8.248;2023-09-19T01:06:12;16.70;99.90
20777;DHT22;10548;47.504;8.248;2023-09-19T01:08:39;16.60;99.90
20777;DHT22;10548;47.504;8.248;2023-09-19T01:11:40;16.50;99.90
20777;DHT22;10548;47.504;8.248;2023-09-19T01:14:34;16.70;99.90
20777;DHT22;10548;47.504;8.248;2023-09-19T01:17:14;16.70;99.90
20777;DHT22;10548;47.504;8.248;2023-09-19T01:20:26;16.80;99.90
20777;DHT22;10548;47.504;8.248;2023-09-19T01:23:10;16.80;99.90
20777;DHT22;10548;47.504;8.248;2023-09-19T01:26:18;16.70;99.90
20777;DHT22;10548;47.504;8.248;2023-09-19T01:29:34;16.70;99.90
20777;DHT22;10548;47.504;8.248;2023-09-19T01:32:06;16.80;99.90
20777;DHT22;10548;47.504;8.248;2023-09-19T01:34:56;16.80;99.90
20777;DHT22;10548;47.504;8.248;2023-09-19T01:37:26;16.80;99.90
20777;DHT22;10548;47.504;8.248;2023-09-19T01:40:05;16.80;99.90
20777;DHT22;10548;47.504;8.248;2023-09-19T01:43:01;16.70;99.90
20777;DHT22;10548;47.504;8.248;2023-09-19T01:46:06;16.70;99.90
20777;DHT22;10548;47.504;8.248;2023-09-19T01:48:46;16.70;99.90
20777;DHT22;10548;47.504;8.248;2023-09-19T01:51:25;16.70;99.90
20777;DHT22;10548;47.504;8.248;2023-09-19T01:54:09;16.60;99.90
20777;DHT22;10548;47.504;8.248;2023-09-19T01:56:48;16.60;99.90
20777;DHT22;10548;47.504;8.248;2023-09-19T01:59:23;16.70;99.90
20777;DHT22;10548;47.504;8.248;2023-09-19T02:01:52;16.70;99.90
20777;DHT22;10548;47.504;8.248;2023-09-19T02:04:20;16.70;99.90
20777;DHT22;10548;47.504;8.248;2023-09-19T02:06:47;16.70;99.90
20777;DHT22;10548;47.504;8.248;2023-09-19T02:09:15;16.70;99.90
20777;DHT22;10548;47.504;8.248;2023-09-19T02:11:42;16.70;99.90
20777;DHT22;10548;47.504;8.248;2023-09-19T02:14:10;16.70;99.90
20777;DHT22;10548;47.504;8.248;2023-09-19T02:16:37;16.80;99.90
20777;DHT22;10548;47.504;8.248;2023-09-19T02:19:04;16.80;99.90
20777;DHT22;10548;47.504;8.248;2023-09-19T02:21:32;16.80;99.90
20777;DHT22;10548;47.504;8.248;2023-09-19T02:24:00;16.80;99.90
20777;DHT22;10548;47.504;8.248;2023-09-19T02:26:27;16.80;99.90
20777;DHT22;10548;47.504;8.248;2023-09-19T02:28:54;16.80;99.90
20777;DHT22;10548;47.504;8.248;2023-09-19T02:31:22;16.80;99.90
20777;DHT22;10548;47.504;8.248;2023-09-19T02:33:49;16.80;99.90
20777;DHT22;10548;47.504;8.248;2023-09-19T02:36:16;16.80;99.90
20777;DHT22;10548;47.504;8.248;2023-09-19T02:38:44;16.70;99.90
20777;DHT22;10548;47.504;8.248;2023-09-19T02:41:11;16.70;99.90
20777;DHT22;10548;47.504;8.248;2023-09-19T02:43:38;16.80;99.90
20777;DHT22;10548;47.504;8.248;2023-09-19T02:46:06;16.70;99.90
20777;DHT22;10548;47.504;8.248;2023-09-19T02:48:33;16.70;99.90
20777;DHT22;10548;47.504;8.248;2023-09-19T02:51:02;16.70;99.90
20777;DHT22;10548;47.504;8.248;2023-09-19T02:53:31;16.70;99.90
20777;DHT22;10548;47.504;8.248;2023-09-19T02:55:59;16.70;99.90
20777;DHT22;10548;47.504;8.248;2023-09-19T02:58:26;16.70;99.90
20777;DHT22;10548;47.504;8.248;2023-09-19T03:00:55;16.60;99.90
20777;DHT22;10548;47.504;8.248;2023-09-19T03:03:23;16.60;99.90
20777;DHT22;10548;47.504;8.248;2023-09-19T03:05:51;16.70;99.90
20777;DHT22;10548;47.504;8.248;2023-09-19T03:08:21;16.70;99.90
20777;DHT22;10548;47.504;8.248;2023-09-19T03:10:49;16.70;99.90
20777;DHT22;10548;47.504;8.248;2023-09-19T03:13:16;16.60;99.90
20777;DHT22;10548;47.504;8.248;2023-09-19T03:15:44;16.60;99.90
20777;DHT22;10548;47.504;8.248;2023-09-19T03:18:16;16.60;99.90
20777;DHT22;10548;47.504;8.248;2023-09-19T03:20:43;16.70;99.90
20777;DHT22;10548;47.504;8.248;2023-09-19T03:23:11;16.70;99.90
20777;DHT22;10548;47.504;8.248;2023-09-19T03:25:40;16.70;99.90
20777;DHT22;10548;47.504;8.248;2023-09-19T03:28:07;16.70;99.90
20777;DHT22;10548;47.504;8.248;2023-09-19T03:30:35;16.70;99.90
20777;DHT22;10548;47.504;8.248;2023-09-19T03:33:04;16.70;99.90
20777;DHT22;10548;47.504;8.248;2023-09-19T03:35:33;16.70;99.90
20777;DHT22;10548;47.504;8.248;2023-09-19T03:38:01;16.70;99.90
20777;DHT22;10548;47.504;8.248;2023-09-19T03:40:30;16.70;99.90
20777;DHT22;10548;47.504;8.248;2023-09-19T03:43:00;16.70;99.90
20777;DHT22;10548;47.504;8.248;2023-09-19T03:45:28;16.70;99.90
20777;DHT22;10548;47.504;8.248;2023-09-19T03:47:55;16.70;99.90
20777;DHT22;10548;47.504;8.248;2023-09-19T03:50:23;16.60;99.90
20777;DHT22;10548;47.504;8.248;2023-09-19T03:52:56;16.70;99.90
20777;DHT22;10548;47.504;8.248;2023-09-19T03:55:24;16.60;99.90
20777;DHT22;10548;47.504;8.248;2023-09-19T03:57:51;16.60;99.90
20777;DHT22;10548;47.504;8.248;2023-09-19T04:00:20;16.60;99.90
20777;DHT22;10548;47.504;8.248;2023-09-19T04:02:48;16.60;99.90
20777;DHT22;10548;47.504;8.248;2023-09-19T04:05:16;16.60;99.90
20777;DHT22;10548;47.504;8.248;2023-09-19T04:07:45;16.50;99.90
20777;DHT22;10548;47.504;8.248;2023-09-19T04:10:13;16.40;99.90
20777;DHT22;10548;47.504;8.248;2023-09-19T04:12:51;16.50;99.90
20777;DHT22;10548;47.504;8.248;2023-09-19T04:15:19;16.50;99.90
20777;DHT22;10548;47.504;8.248;2023-09-19T04:17:46;16.40;99.90
20777;DHT22;10548;47.504;8.248;2023-09-19T04:20:14;16.30;99.90
20777;DHT22;10548;47.504;8.248;2023-09-19T04:22:41;16.40;99.90
20777;DHT22;10548;47.504;8.248;2023-09-19T04:25:08;16.40;99.90
20777;DHT22;10548;47.504;8.248;2023-09-19T04:27:35;16.40;99.90
20777;DHT22;10548;47.504;8.248;2023-09-19T04:30:03;16.50;99.90
20777;DHT22;10548;47.504;8.248;2023-09-19T04:32:36;16.50;99.90
20777;DHT22;10548;47.504;8.248;2023-09-19T04:35:10;16.50;99.90
20777;DHT22;10548;47.504;8.248;2023-09-19T04:37:41;16.50;99.90
20777;DHT22;10548;47.504;8.248;2023-09-19T04:40:11;16.50;99.90
20777;DHT22;10548;47.504;8.248;2023-09-19T04:42:44;16.50;99.90
20777;DHT22;10548;47.504;8.248;2023-09-19T04:45:13;16.50;99.90
20777;DHT22;10548;47.504;8.248;2023-09-19T04:47:40;16.50;99.90
20777;DHT22;10548;47.504;8.248;2023-09-19T04:50:08;16.50;99.90
20777;DHT22;10548;47.504;8.248;2023-09-19T04:52:43;16.50;99.90
20777;DHT22;10548;47.504;8.248;2023-09-19T04:55:15;16.50;99.90
20777;DHT22;10548;47.504;8.248;2023-09-19T04:57:46;16.50;99.90
20777;DHT22;10548;47.504;8.248;2023-09-19T05:00:19;16.50;99.90
20777;DHT22;10548;47.504;8.248;2023-09-19T05:02:51;16.50;99.90
20777;DHT22;10548;47.504;8.248;2023-09-19T05:05:18;16.50;99.90
20777;DHT22;10548;47.504;8.248;2023-09-19T05:07:46;16.50;99.90
20777;DHT22;10548;47.504;8.248;2023-09-19T05:10:14;16.50;99.90
20777;DHT22;10548;47.504;8.248;2023-09-19T05:12:43;16.50;99.90
20777;DHT22;10548;47.504;8.248;2023-09-19T05:15:12;16.50;99.90
20777;DHT22;10548;47.504;8.248;2023-09-19T05:17:41;16.40;99.90
20777;DHT22;10548;47.504;8.248;2023-09-19T05:20:09;16.50;99.90
20777;DHT22;10548;47.504;8.248;2023-09-19T05:22:58;16.50;99.90
20777;DHT22;10548;47.504;8.248;2023-09-19T05:25:29;16.60;99.90
20777;DHT22;10548;47.504;8.248;2023-09-19T05:27:57;16.50;99.90
20777;DHT22;10548;47.504;8.248;2023-09-19T05:30:26;16.60;99.90
20777;DHT22;10548;47.504;8.248;2023-09-19T05:32:56;16.50;99.90
20777;DHT22;10548;47.504;8.248;2023-09-19T05:35:24;16.50;99.90
20777;DHT22;10548;47.504;8.248;2023-09-19T05:37:52;16.50;99.90
20777;DHT22;10548;47.504;8.248;2023-09-19T05:40:19;16.50;99.90
20777;DHT22;10548;47.504;8.248;2023-09-19T05:42:47;16.50;99.90
20777;DHT22;10548;47.504;8.248;2023-09-19T05:45:14;16.60;99.90
20777;DHT22;10548;47.504;8.248;2023-09-19T05:47:45;16.60;99.90
20777;DHT22;10548;47.504;8.248;2023-09-19T05:50:13;16.60;99.90
20777;DHT22;10548;47.504;8.248;2023-09-19T05:52:42;16.70;99.90
20777;DHT22;10548;47.504;8.248;2023-09-19T05:55:10;16.70;99.90
20777;DHT22;10548;47.504;8.248;2023-09-19T05:57:38;16.80;99.90
20777;DHT22;10548;47.504;8.248;2023-09-19T06:00:10;16.90;99.90
20777;DHT22;10548;47.504;8.248;2023-09-19T06:02:38;16.90;99.90
20777;DHT22;10548;47.504;8.248;2023-09-19T06:05:06;16.80;99.90
20777;DHT22;10548;47.504;8.248;2023-09-19T06:07:33;16.80;99.90
20777;DHT22;10548;47.504;8.248;2023-09-19T06:10:04;16.80;99.90
20777;DHT22;10548;47.504;8.248;2023-09-19T06:12:38;16.90;99.90
20777;DHT22;10548;47.504;8.248;2023-09-19T06:15:06;16.90;99.90
20777;DHT22;10548;47.504;8.248;2023-09-19T06:17:39;17.00;99.90
20777;DHT22;10548;47.504;8.248;2023-09-19T06:20:07;17.10;99.90
20777;DHT22;10548;47.504;8.248;2023-09-19T06:22:45;17.00;99.90
20777;DHT22;10548;47.504;8.248;2023-09-19T06:25:14;17.10;99.90
20777;DHT22;10548;47.504;8.248;2023-09-19T06:27:52;17.00;99.90
20777;DHT22;10548;47.504;8.248;2023-09-19T06:30:22;17.10;99.90
20777;DHT22;10548;47.504;8.248;2023-09-19T06:32:57;17.20;99.90
20777;DHT22;10548;47.504;8.248;2023-09-19T06:35:26;17.20;99.90
20777;DHT22;10548;47.504;8.248;2023-09-19T06:39:42;17.10;99.90
20777;DHT22;10548;47.504;8.248;2023-09-19T06:42:09;17.00;99.90
20777;DHT22;10548;47.504;8.248;2023-09-19T06:45:53;17.00;99.90
20777;DHT22;10548;47.504;8.248;2023-09-19T06:48:21;16.90;99.90
20777;DHT22;10548;47.504;8.248;2023-09-19T06:50:48;16.90;99.90
20777;DHT22;10548;47.504;8.248;2023-09-19T06:53:16;17.00;99.90
20777;DHT22;10548;47.504;8.248;2023-09-19T06:55:44;17.10;99.90
20777;DHT22;10548;47.504;8.248;2023-09-19T06:58:12;17.10;99.90
20777;DHT22;10548;47.504;8.248;2023-09-19T07:00:39;17.10;99.90
20777;DHT22;10548;47.504;8.248;2023-09-19T07:03:07;17.20;99.90
20777;DHT22;10548;47.504;8.248;2023-09-19T07:05:39;17.20;99.90
20777;DHT22;10548;47.504;8.248;2023-09-19T07:08:07;17.20;99.90
20777;DHT22;10548;47.504;8.248;2023-09-19T07:10:35;17.50;99.90
20777;DHT22;10548;47.504;8.248;2023-09-19T07:13:06;17.50;99.90
20777;DHT22;10548;47.504;8.248;2023-09-19T07:15:37;17.50;99.90
20777;DHT22;10548;47.504;8.248;2023-09-19T07:18:14;17.60;99.90
20777;DHT22;10548;47.504;8.248;2023-09-19T07:20:46;17.90;99.90
20777;DHT22;10548;47.504;8.248;2023-09-19T07:23:17;17.70;99.90
20777;DHT22;10548;47.504;8.248;2023-09-19T07:25:45;17.70;99.90
20777;DHT22;10548;47.504;8.248;2023-09-19T07:28:13;17.50;99.90
20777;DHT22;10548;47.504;8.248;2023-09-19T07:30:40;17.40;99.90
20777;DHT22;10548;47.504;8.248;2023-09-19T07:33:08;17.40;99.90
20777;DHT22;10548;47.504;8.248;2023-09-19T07:35:38;17.40;99.90
20777;DHT22;10548;47.504;8.248;2023-09-19T07:38:09;17.50;99.90
20777;DHT22;10548;47.504;8.248;2023-09-19T07:40:38;17.60;99.90
20777;DHT22;10548;47.504;8.248;2023-09-19T07:43:06;17.60;99.90
20777;DHT22;10548;47.504;8.248;2023-09-19T07:45:34;17.60;99.90
20777;DHT22;10548;47.504;8.248;2023-09-19T07:48:03;17.50;99.90
20777;DHT22;10548;47.504;8.248;2023-09-19T07:50:40;17.60;99.90
20777;DHT22;10548;47.504;8.248;2023-09-19T07:53:10;17.70;99.90
20777;DHT22;10548;47.504;8.248;2023-09-19T07:55:40;17.70;99.90
20777;DHT22;10548;47.504;8.248;2023-09-19T07:58:08;17.80;99.90
20777;DHT22;10548;47.504;8.248;2023-09-19T08:00:35;17.80;99.90
20777;DHT22;10548;47.504;8.248;2023-09-19T08:03:02;17.80;99.90
20777;DHT22;10548;47.504;8.248;2023-09-19T08:05:42;17.70;99.90
20777;DHT22;10548;47.504;8.248;2023-09-19T08:08:11;17.60;99.90
20777;DHT22;10548;47.504;8.248;2023-09-19T08:10:42;18.00;99.90
20777;DHT22;10548;47.504;8.248;2023-09-19T08:13:12;18.40;99.90
20777;DHT22;10548;47.504;8.248;2023-09-19T08:15:43;18.30;99.90
20777;DHT22;10548;47.504;8.248;2023-09-19T08:18:11;18.40;99.90
20777;DHT22;10548;47.504;8.248;2023-09-19T08:20:39;18.30;99.90
20777;DHT22;10548;47.504;8.248;2023-09-19T08:23:09;18.10;99.90
20777;DHT22;10548;47.504;8.248;2023-09-19T08:25:37;18.10;99.90
20777;DHT22;10548;47.504;8.248;2023-09-19T08:28:06;18.00;99.90
20777;DHT22;10548;47.504;8.248;2023-09-19T08:30:35;18.00;99.90
20777;DHT22;10548;47.504;8.248;2023-09-19T08:33:04;18.00;99.90
20777;DHT22;10548;47.504;8.248;2023-09-19T08:35:33;18.10;99.90
20777;DHT22;10548;47.504;8.248;2023-09-19T08:38:00;18.00;99.90
20777;DHT22;10548;47.504;8.248;2023-09-19T08:40:31;17.90;99.90
20777;DHT22;10548;47.504;8.248;2023-09-19T08:43:00;17.80;99.90
20777;DHT22;10548;47.504;8.248;2023-09-19T08:45:27;17.70;99.90
20777;DHT22;10548;47.504;8.248;2023-09-19T08:48:31;17.90;99.90
20777;DHT22;10548;47.504;8.248;2023-09-19T08:51:12;17.90;99.90
20777;DHT22;10548;47.504;8.248;2023-09-19T08:56:33;18.10;99.90
20777;DHT22;10548;47.504;8.248;2023-09-19T08:59:03;18.10;99.90
20777;DHT22;10548;47.504;8.248;2023-09-19T09:01:38;18.40;99.90
20777;DHT22;10548;47.504;8.248;2023-09-19T09:04:09;18.40;99.90
20777;DHT22;10548;47.504;8.248;2023-09-19T09:06:42;18.20;99.90
20777;DHT22;10548;47.504;8.248;2023-09-19T09:09:12;18.40;99.90
20777;DHT22;10548;47.504;8.248;2023-09-19T09:11:40;18.60;99.90
20777;DHT22;10548;47.504;8.248;2023-09-19T09:14:07;18.80;99.90
20777;DHT22;10548;47.504;8.248;2023-09-19T09:16:34;18.70;99.90
20777;DHT22;10548;47.504;8.248;2023-09-19T09:19:02;18.50;99.90
20777;DHT22;10548;47.504;8.248;2023-09-19T09:21:29;18.60;99.90
20777;DHT22;10548;47.504;8.248;2023-09-19T09:23:56;19.10;99.90
20777;DHT22;10548;47.504;8.248;2023-09-19T09:26:42;19.20;99.90
20777;DHT22;10548;47.504;8.248;2023-09-19T09:29:10;19.30;99.90
20777;DHT22;10548;47.504;8.248;2023-09-19T09:31:37;19.00;99.90
20777;DHT22;10548;47.504;8.248;2023-09-19T09:34:05;19.10;99.90
20777;DHT22;10548;47.504;8.248;2023-09-19T09:36:38;19.30;99.90
20777;DHT22;10548;47.504;8.248;2023-09-19T09:39:05;19.60;99.90
20777;DHT22;10548;47.504;8.248;2023-09-19T09:41:46;19.80;99.90
20777;DHT22;10548;47.504;8.248;2023-09-19T09:44:19;19.40;99.90
20777;DHT22;10548;47.504;8.248;2023-09-19T09:46:47;19.40;99.90
20777;DHT22;10548;47.504;8.248;2023-09-19T09:49:47;19.60;99.90
20777;DHT22;10548;47.504;8.248;2023-09-19T09:52:21;19.90;99.90
20777;DHT22;10548;47.504;8.248;2023-09-19T09:54:59;19.80;99.90
20777;DHT22;10548;47.504;8.248;2023-09-19T09:57:27;19.50;99.90
20777;DHT22;10548;47.504;8.248;2023-09-19T09:59:58;19.50;99.90
20777;DHT22;10548;47.504;8.248;2023-09-19T10:02:30;19.40;99.90
20777;DHT22;10548;47.504;8.248;2023-09-19T10:05:18;19.30;99.90
20777;DHT22;10548;47.504;8.248;2023-09-19T10:07:55;19.90;99.90
20777;DHT22;10548;47.504;8.248;2023-09-19T10:10:38;20.20;99.90
20777;DHT22;10548;47.504;8.248;2023-09-19T10:13:26;20.90;99.90
20777;DHT22;10548;47.504;8.248;2023-09-19T10:15:56;21.60;99.90
20777;DHT22;10548;47.504;8.248;2023-09-19T10:18:27;22.00;99.90
20777;DHT22;10548;47.504;8.248;2023-09-19T10:20:57;22.40;99.90
20777;DHT22;10548;47.504;8.248;2023-09-19T10:23:25;23.10;99.90
20777;DHT22;10548;47.504;8.248;2023-09-19T10:25:57;22.50;99.90
20777;DHT22;10548;47.504;8.248;2023-09-19T10:28:28;22.40;99.90
20777;DHT22;10548;47.504;8.248;2023-09-19T10:30:57;21.90;99.90
20777;DHT22;10548;47.504;8.248;2023-09-19T10:33:26;21.20;99.90
20777;DHT22;10548;47.504;8.248;2023-09-19T10:35:54;21.00;99.90
20777;DHT22;10548;47.504;8.248;2023-09-19T10:39:13;20.90;99.90
20777;DHT22;10548;47.504;8.248;2023-09-19T10:41:41;20.80;99.90
20777;DHT22;10548;47.504;8.248;2023-09-19T10:44:08;20.90;99.90
20777;DHT22;10548;47.504;8.248;2023-09-19T10:46:37;20.90;99.90
20777;DHT22;10548;47.504;8.248;2023-09-19T10:49:05;20.70;99.90
20777;DHT22;10548;47.504;8.248;2023-09-19T10:51:39;21.00;99.90
20777;DHT22;10548;47.504;8.248;2023-09-19T10:54:11;21.10;99.90
20777;DHT22;10548;47.504;8.248;2023-09-19T10:56:46;21.30;99.90
20777;DHT22;10548;47.504;8.248;2023-09-19T10:59:16;20.90;99.90
20777;DHT22;10548;47.504;8.248;2023-09-19T11:01:50;20.70;99.90
20777;DHT22;10548;47.504;8.248;2023-09-19T11:04:34;20.80;99.90
20777;DHT22;10548;47.504;8.248;2023-09-19T11:07:07;20.80;99.90
20777;DHT22;10548;47.504;8.248;2023-09-19T11:09:54;20.50;99.90
20777;DHT22;10548;47.504;8.248;2023-09-19T11:12:50;21.00;99.90
20777;DHT22;10548;47.504;8.248;2023-09-19T11:19:03;21.00;99.90
20777;DHT22;10548;47.504;8.248;2023-09-19T11:21:51;22.90;96.40
20777;DHT22;10548;47.504;8.248;2023-09-19T11:24:30;24.20;94.20
20777;DHT22;10548;47.504;8.248;2023-09-19T11:27:14;23.50;93.50
20777;DHT22;10548;47.504;8.248;2023-09-19T11:29:44;23.80;94.90
20777;DHT22;10548;47.504;8.248;2023-09-19T11:32:11;24.00;94.50
20777;DHT22;10548;47.504;8.248;2023-09-19T11:34:40;23.20;93.10
20777;DHT22;10548;47.504;8.248;2023-09-19T11:40:19;23.20;94.00
20777;DHT22;10548;47.504;8.248;2023-09-19T11:42:47;23.70;92.70
20777;DHT22;10548;47.504;8.248;2023-09-19T11:46:02;24.20;94.10
20777;DHT22;10548;47.504;8.248;2023-09-19T11:48:30;21.80;95.70
20777;DHT22;10548;47.504;8.248;2023-09-19T11:50:58;21.90;96.80
20777;DHT22;10548;47.504;8.248;2023-09-19T11:53:31;22.10;96.60
20777;DHT22;10548;47.504;8.248;2023-09-19T11:56:00;23.40;96.10
20777;DHT22;10548;47.504;8.248;2023-09-19T11:58:28;23.80;92.80
20777;DHT22;10548;47.504;8.248;2023-09-19T12:00:58;23.50;92.00
20777;DHT22;10548;47.504;8.248;2023-09-19T12:03:29;24.10;91.90
20777;DHT22;10548;47.504;8.248;2023-09-19T12:05:58;23.60;91.50
20777;DHT22;10548;47.504;8.248;2023-09-19T12:08:26;23.80;90.00
20777;DHT22;10548;47.504;8.248;2023-09-19T12:10:54;22.50;93.30
20777;DHT22;10548;47.504;8.248;2023-09-19T12:13:25;22.70;95.00
20777;DHT22;10548;47.504;8.248;2023-09-19T12:15:52;23.20;93.00
20777;DHT22;10548;47.504;8.248;2023-09-19T12:18:30;23.10;92.50
20777;DHT22;10548;47.504;8.248;2023-09-19T12:20:57;23.20;89.30
20777;DHT22;10548;47.504;8.248;2023-09-19T12:23:25;23.40;89.90
20777;DHT22;10548;47.504;8.248;2023-09-19T12:25:55;23.30;88.80
20777;DHT22;10548;47.504;8.248;2023-09-19T12:28:27;23.60;89.30
20777;DHT22;10548;47.504;8.248;2023-09-19T12:31:08;23.50;89.10
20777;DHT22;10548;47.504;8.248;2023-09-19T12:33:35;23.20;88.10
20777;DHT22;10548;47.504;8.248;2023-09-19T12:36:20;23.80;90.60
20777;DHT22;10548;47.504;8.248;2023-09-19T12:38:52;24.40;89.10
20777;DHT22;10548;47.504;8.248;2023-09-19T12:41:20;24.80;84.30
20777;DHT22;10548;47.504;8.248;2023-09-19T12:43:49;25.20;83.10
20777;DHT22;10548;47.504;8.248;2023-09-19T12:46:22;26.50;73.10
20777;DHT22;10548;47.504;8.248;2023-09-19T12:49:15;24.70;81.40
20777;DHT22;10548;47.504;8.248;2023-09-19T12:51:47;24.80;77.60
20777;DHT22;10548;47.504;8.248;2023-09-19T12:54:14;25.60;73.50
20777;DHT22;10548;47.504;8.248;2023-09-19T12:56:44;25.90;74.80
20777;DHT22;10548;47.504;8.248;2023-09-19T12:59:13;24.50;77.20
20777;DHT22;10548;47.504;8.248;2023-09-19T13:01:41;24.20;74.30
20777;DHT22;10548;47.504;8.248;2023-09-19T13:04:20;23.60;79.90
20777;DHT22;10548;47.504;8.248;2023-09-19T13:06:49;23.80;78.70
20777;DHT22;10548;47.504;8.248;2023-09-19T13:09:18;23.30;82.00
20777;DHT22;10548;47.504;8.248;2023-09-19T13:11:47;23.80;89.90
20777;DHT22;10548;47.504;8.248;2023-09-19T13:14:22;24.10;85.90
20777;DHT22;10548;47.504;8.248;2023-09-19T13:17:07;26.10;82.30
20777;DHT22;10548;47.504;8.248;2023-09-19T13:19:49;26.40;78.40
20777;DHT22;10548;47.504;8.248;2023-09-19T13:22:42;25.50;77.90
20777;DHT22;10548;47.504;8.248;2023-09-19T13:25:20;24.90;81.10
20777;DHT22;10548;47.504;8.248;2023-09-19T13:27:52;24.90;82.00
20777;DHT22;10548;47.504;8.248;2023-09-19T13:30:25;24.20;83.70
20777;DHT22;10548;47.504;8.248;2023-09-19T13:33:03;24.40;81.90
20777;DHT22;10548;47.504;8.248;2023-09-19T13:35:32;24.40;81.00
20777;DHT22;10548;47.504;8.248;2023-09-19T13:37:59;24.30;80.80
20777;DHT22;10548;47.504;8.248;2023-09-19T13:40:28;24.70;83.50
20777;DHT22;10548;47.504;8.248;2023-09-19T13:42:59;26.10;76.00
20777;DHT22;10548;47.504;8.248;2023-09-19T13:45:26;26.40;71.20
20777;DHT22;10548;47.504;8.248;2023-09-19T13:47:57;27.20;71.70
20777;DHT22;10548;47.504;8.248;2023-09-19T13:50:26;27.20;64.30
20777;DHT22;10548;47.504;8.248;2023-09-19T13:52:56;27.50;64.80
20777;DHT22;10548;47.504;8.248;2023-09-19T13:55:24;27.10;61.10
20777;DHT22;10548;47.504;8.248;2023-09-19T13:57:52;26.70;63.70
20777;DHT22;10548;47.504;8.248;2023-09-19T14:00:23;27.30;63.60
20777;DHT22;10548;47.504;8.248;2023-09-19T14:02:50;28.00;59.60
20777;DHT22;10548;47.504;8.248;2023-09-19T14:05:19;26.90;61.60
20777;DHT22;10548;47.504;8.248;2023-09-19T14:07:48;25.70;62.20
20777;DHT22;10548;47.504;8.248;2023-09-19T14:10:15;26.70;63.30
20777;DHT22;10548;47.504;8.248;2023-09-19T14:12:45;27.10;63.10
20777;DHT22;10548;47.504;8.248;2023-09-19T14:15:12;26.90;63.40
20777;DHT22;10548;47.504;8.248;2023-09-19T14:17:40;27.40;62.00
20777;DHT22;10548;47.504;8.248;2023-09-19T14:20:12;28.30;58.60
20777;DHT22;10548;47.504;8.248;2023-09-19T14:22:41;28.40;56.90
20777;DHT22;10548;47.504;8.248;2023-09-19T14:25:08;28.70;56.20
20777;DHT22;10548;47.504;8.248;2023-09-19T14:27:36;28.80;54.30
20777;DHT22;10548;47.504;8.248;2023-09-19T14:30:04;28.60;56.20
20777;DHT22;10548;47.504;8.248;2023-09-19T14:32:31;28.10;58.00
20777;DHT22;10548;47.504;8.248;2023-09-19T14:34:58;27.60;55.70
20777;DHT22;10548;47.504;8.248;2023-09-19T14:37:25;27.60;57.20
20777;DHT22;10548;47.504;8.248;2023-09-19T14:39:54;29.10;55.10
20777;DHT22;10548;47.504;8.248;2023-09-19T14:42:22;28.40;51.70
20777;DHT22;10548;47.504;8.248;2023-09-19T14:44:49;28.80;53.60
20777;DHT22;10548;47.504;8.248;2023-09-19T14:47:17;28.20;53.50
20777;DHT22;10548;47.504;8.248;2023-09-19T14:49:44;28.30;51.80
20777;DHT22;10548;47.504;8.248;2023-09-19T14:52:12;29.60;51.30
20777;DHT22;10548;47.504;8.248;2023-09-19T14:54:43;29.90;48.50
20777;DHT22;10548;47.504;8.248;2023-09-19T14:57:10;27.10;51.70
20777;DHT22;10548;47.504;8.248;2023-09-19T14:59:37;28.40;48.10
20777;DHT22;10548;47.504;8.248;2023-09-19T15:02:04;28.90;50.20
20777;DHT22;10548;47.504;8.248;2023-09-19T15:04:32;29.20;46.40
20777;DHT22;10548;47.504;8.248;2023-09-19T15:07:00;26.60;52.90
20777;DHT22;10548;47.504;8.248;2023-09-19T15:09:29;26.50;54.60
20777;DHT22;10548;47.504;8.248;2023-09-19T15:11:59;26.50;55.00
20777;DHT22;10548;47.504;8.248;2023-09-19T15:14:26;26.10;55.60
20777;DHT22;10548;47.504;8.248;2023-09-19T15:16:53;26.50;57.10
20777;DHT22;10548;47.504;8.248;2023-09-19T15:19:22;27.50;56.20
20777;DHT22;10548;47.504;8.248;2023-09-19T15:21:49;27.10;55.80
20777;DHT22;10548;47.504;8.248;2023-09-19T15:24:16;26.80;54.10
20777;DHT22;10548;47.504;8.248;2023-09-19T15:26:44;26.60;55.30
20777;DHT22;10548;47.504;8.248;2023-09-19T15:29:13;27.80;54.40
20777;DHT22;10548;47.504;8.248;2023-09-19T15:31:40;28.50;50.80
20777;DHT22;10548;47.504;8.248;2023-09-19T15:34:08;28.90;49.10
20777;DHT22;10548;47.504;8.248;2023-09-19T15:36:37;29.40;49.30
20777;DHT22;10548;47.504;8.248;2023-09-19T15:39:06;29.20;46.60
20777;DHT22;10548;47.504;8.248;2023-09-19T15:41:37;28.20;49.50
20777;DHT22;10548;47.504;8.248;2023-09-19T15:44:10;27.90;50.30
20777;DHT22;10548;47.504;8.248;2023-09-19T15:46:37;26.40;53.20
20777;DHT22;10548;47.504;8.248;2023-09-19T15:49:05;26.30;52.50
20777;DHT22;10548;47.504;8.248;2023-09-19T15:51:33;26.80;54.70
20777;DHT22;10548;47.504;8.248;2023-09-19T15:54:51;26.80;54.00
20777;DHT22;10548;47.504;8.248;2023-09-19T15:57:19;26.40;53.40
20777;DHT22;10548;47.504;8.248;2023-09-19T15:59:46;27.00;53.50
20777;DHT22;10548;47.504;8.248;2023-09-19T16:02:16;26.90;53.90
20777;DHT22;10548;47.504;8.248;2023-09-19T16:04:44;26.10;55.70
20777;DHT22;10548;47.504;8.248;2023-09-19T16:07:12;25.20;58.00
20777;DHT22;10548;47.504;8.248;2023-09-19T16:09:39;24.90;58.40